Aviation Digital Data Service (ADDS)

Output produced by METARs form (1312 UTC 23 January 2019)
found at http://www.aviationweather.gov/metar/data/
 
METAR text: NZCH 231300Z AUTO 28006KT 9999 SCT080/// 11/07 Q1007 NOSIG
Conditions at: NZCH (CHRISTCHURCH INT, NZ) observed 1300 UTC 23 January 2019
Temperature: 11.0°C (52°F)
Dewpoint: 7.0°C (45°F) [RH = 76%]
Pressure (altimeter): 29.73 inches Hg (1007.0 mb)
Winds: from the W (280 degrees) at 7 MPH (6 knots; 3.1 m/s)
Visibility: 6 or more miles (10+ km)
Ceiling: at least 12,000 feet AGL
Clouds: scattered clouds at 8000 feet AGL
Weather: no significant weather observed at this time

METAR text: NZCH 231230Z AUTO 27007KT 230V290 9999 OVC065/// 11/08 Q1007 NOSIG
Conditions at: NZCH (CHRISTCHURCH INT, NZ) observed 1230 UTC 23 January 2019
Temperature: 11.0°C (52°F)
Dewpoint: 8.0°C (46°F) [RH = 82%]
Pressure (altimeter): 29.73 inches Hg (1007.0 mb)
Winds: from the W (270 degrees) at 8 MPH (7 knots; 3.6 m/s)
Visibility: 6 or more miles (10+ km)
Ceiling: 6500 feet AGL
Clouds: overcast cloud deck at 6500 feet AGL
Weather: no significant weather observed at this time

METAR text: NZCH 231200Z AUTO 28007KT 250V320 9999 OVC055/// 11/08 Q1006 NOSIG
Conditions at: NZCH (CHRISTCHURCH INT, NZ) observed 1200 UTC 23 January 2019
Temperature: 11.0°C (52°F)
Dewpoint: 8.0°C (46°F) [RH = 82%]
Pressure (altimeter): 29.70 inches Hg (1006.0 mb)
Winds: from the W (280 degrees) at 8 MPH (7 knots; 3.6 m/s)
Visibility: 6 or more miles (10+ km)
Ceiling: 5500 feet AGL
Clouds: overcast cloud deck at 5500 feet AGL
Weather: no significant weather observed at this time

METAR text: NZCH 231130Z AUTO 28007KT 230V320 9999 FEW038/// BKN060/// 11/08 Q1006 NOSIG
Conditions at: NZCH (CHRISTCHURCH INT, NZ) observed 1130 UTC 23 January 2019
Temperature: 11.0°C (52°F)
Dewpoint: 8.0°C (46°F) [RH = 82%]
Pressure (altimeter): 29.70 inches Hg (1006.0 mb)
Winds: from the W (280 degrees) at 8 MPH (7 knots; 3.6 m/s)
Visibility: 6 or more miles (10+ km)
Ceiling: 6000 feet AGL
Clouds: few clouds at 3800 feet AGL
broken clouds at 6000 feet AGL
Weather: no significant weather observed at this time

METAR text: NZCH 231100Z AUTO 24009KT 200V270 9999 BKN065/// BKN100/// 12/07 Q1005 NOSIG
Conditions at: NZCH (CHRISTCHURCH INT, NZ) observed 1100 UTC 23 January 2019
Temperature: 12.0°C (54°F)
Dewpoint: 7.0°C (45°F) [RH = 71%]
Pressure (altimeter): 29.68 inches Hg (1005.0 mb)
Winds: from the WSW (240 degrees) at 10 MPH (9 knots; 4.6 m/s)
Visibility: 6 or more miles (10+ km)
Ceiling: 6500 feet AGL
Clouds: broken clouds at 6500 feet AGL
broken clouds at 10000 feet AGL
Weather: no significant weather observed at this time

METAR text: NZCH 231030Z AUTO 23013KT 9999 BKN075/// 12/07 Q1005 NOSIG
Conditions at: NZCH (CHRISTCHURCH INT, NZ) observed 1030 UTC 23 January 2019
Temperature: 12.0°C (54°F)
Dewpoint: 7.0°C (45°F) [RH = 71%]
Pressure (altimeter): 29.68 inches Hg (1005.0 mb)
Winds: from the SW (230 degrees) at 15 MPH (13 knots; 6.7 m/s)
Visibility: 6 or more miles (10+ km)
Ceiling: 7500 feet AGL
Clouds: broken clouds at 7500 feet AGL
Weather: no significant weather observed at this time

METAR text: NZCH 231000Z AUTO 23014KT 9999 SCT026/// BKN032/// BKN075/// 12/08 Q1004 NOSIG
Conditions at: NZCH (CHRISTCHURCH INT, NZ) observed 1000 UTC 23 January 2019
Temperature: 12.0°C (54°F)
Dewpoint: 8.0°C (46°F) [RH = 76%]
Pressure (altimeter): 29.65 inches Hg (1004.0 mb)
Winds: from the SW (230 degrees) at 16 MPH (14 knots; 7.2 m/s)
Visibility: 6 or more miles (10+ km)
Ceiling: 3200 feet AGL
Clouds: scattered clouds at 2600 feet AGL
broken clouds at 3200 feet AGL
broken clouds at 7500 feet AGL
Weather: no significant weather observed at this time

METAR text: NZCH 230930Z AUTO 24013KT 9999 FEW027/// SCT032/// OVC060/// 12/09 Q1004 TEMPO 6000 RA
Conditions at: NZCH (CHRISTCHURCH INT, NZ) observed 0930 UTC 23 January 2019
Temperature: 12.0°C (54°F)
Dewpoint: 9.0°C (48°F) [RH = 82%]
Pressure (altimeter): 29.65 inches Hg (1004.0 mb)
Winds: from the WSW (240 degrees) at 15 MPH (13 knots; 6.7 m/s)
Visibility: 6 or more miles (10+ km)
Ceiling: 6000 feet AGL
Clouds: few clouds at 2700 feet AGL
scattered clouds at 3200 feet AGL
overcast cloud deck at 6000 feet AGL
Weather: no significant weather observed at this time

METAR text: NZCH 230900Z AUTO 22018KT 9999 FEW019/// BKN039/// OVC060/// 11/09 Q1002 TEMPO 6000 RA
Conditions at: NZCH (CHRISTCHURCH INT, NZ) observed 0900 UTC 23 January 2019
Temperature: 11.0°C (52°F)
Dewpoint: 9.0°C (48°F) [RH = 87%]
Pressure (altimeter): 29.59 inches Hg (1002.0 mb)
Winds: from the SW (220 degrees) at 21 MPH (18 knots; 9.3 m/s)
Visibility: 6 or more miles (10+ km)
Ceiling: 3900 feet AGL
Clouds: few clouds at 1900 feet AGL
broken clouds at 3900 feet AGL
overcast cloud deck at 6000 feet AGL
Weather: no significant weather observed at this time

METAR text: NZCH 230830Z AUTO 22027G37KT 9999 FEW025/// SCT055/// BKN065/// 11/09 Q1000 TEMPO 4000 RA
Conditions at: NZCH (CHRISTCHURCH INT, NZ) observed 0830 UTC 23 January 2019
Temperature: 11.0°C (52°F)
Dewpoint: 9.0°C (48°F) [RH = 87%]
Pressure (altimeter): 29.53 inches Hg (1000.0 mb)
Winds: from the SW (220 degrees) at 31 MPH (27 knots; 13.9 m/s)
gusting to 43 MPH (37 knots; 19.0 m/s)
Visibility: 6 or more miles (10+ km)
Ceiling: 6500 feet AGL
Clouds: few clouds at 2500 feet AGL
scattered clouds at 5500 feet AGL
broken clouds at 6500 feet AGL
Weather: no significant weather observed at this time

METAR text: NZCH 230800Z AUTO 21028G42KT 5000 RA FEW014/// BKN031/// OVC049/// 12/10 Q0999 TEMPO 9999 -SHRA BKN009
Conditions at: NZCH (CHRISTCHURCH INT, NZ) observed 0800 UTC 23 January 2019
Temperature: 12.0°C (54°F)
Dewpoint: 10.0°C (50°F) [RH = 88%]
Pressure (altimeter): 29.50 inches Hg (999.0 mb)
Winds: from the SSW (210 degrees) at 32 MPH (28 knots; 14.4 m/s)
gusting to 48 MPH (42 knots; 21.6 m/s)
Visibility: 3 miles ( 5 km)
Ceiling: 3100 feet AGL
Clouds: few clouds at 1400 feet AGL
broken clouds at 3100 feet AGL
overcast cloud deck at 4900 feet AGL
Weather: RA  (moderate rain)

METAR text: NZCH 230730Z AUTO 20034G48KT 3100 RA BKN015/// 11/11 Q0997 TEMPO 9999 -SHRA BKN009
Conditions at: NZCH (CHRISTCHURCH INT, NZ) observed 0730 UTC 23 January 2019
Temperature: 11.0°C (52°F)
Dewpoint: 11.0°C (52°F) [RH = 100%]
Pressure (altimeter): 29.44 inches Hg (997.0 mb)
Winds: from the SSW (200 degrees) at 39 MPH (34 knots; 17.5 m/s)
gusting to 55 MPH (48 knots; 24.7 m/s)
Visibility: 1.93 miles (3.11 km)
Ceiling: 1500 feet AGL
Clouds: broken clouds at 1500 feet AGL
Weather: RA  (moderate rain)

METAR text: NZCH 230700Z AUTO 21030G51KT 170V260 4700 RA SCT009/// 13/12 Q0994 BECMG BKN009 TEMPO 9999 -SHRA SCT009
Conditions at: NZCH (CHRISTCHURCH INT, NZ) observed 0700 UTC 23 January 2019
Temperature: 13.0°C (55°F)
Dewpoint: 12.0°C (54°F) [RH = 94%]
Pressure (altimeter): 29.35 inches Hg (994.0 mb)
Winds: from the SSW (210 degrees) at 34 MPH (30 knots; 15.4 m/s)
gusting to 59 MPH (51 knots; 26.2 m/s)
Visibility: 2.92 miles (4.70 km)
Ceiling: at least 12,000 feet AGL
Clouds: scattered clouds at 900 feet AGL
Weather: RA  (moderate rain)

METAR text: NZCH 230630Z AUTO 26004KT 210V330 9999 -RA FEW041/// BKN100/// 20/18 Q0991 BECMG 20035G50KT TEMPO 4000 RA
Conditions at: NZCH (CHRISTCHURCH INT, NZ) observed 0630 UTC 23 January 2019
Temperature: 20.0°C (68°F)
Dewpoint: 18.0°C (64°F) [RH = 88%]
Pressure (altimeter): 29.26 inches Hg (991.0 mb)
Winds: from the W (260 degrees) at 5 MPH (4 knots; 2.1 m/s)
Visibility: 6 or more miles (10+ km)
Ceiling: 10000 feet AGL
Clouds: few clouds at 4100 feet AGL
broken clouds at 10000 feet AGL
Weather: -RA  (light rain)

METAR text: NZCH 230600Z AUTO 28006KT 240V310 9999 -RA SCT090/// 20/18 Q0990 RERA BECMG 20035G50KT TEMPO 4000 RA
Conditions at: NZCH (CHRISTCHURCH INT, NZ) observed 0600 UTC 23 January 2019
Temperature: 20.0°C (68°F)
Dewpoint: 18.0°C (64°F) [RH = 88%]
Pressure (altimeter): 29.23 inches Hg (990.0 mb)
Winds: from the W (280 degrees) at 7 MPH (6 knots; 3.1 m/s)
Visibility: 6 or more miles (10+ km)
Ceiling: at least 12,000 feet AGL
Clouds: scattered clouds at 9000 feet AGL
Weather: -RA  (light rain)

METAR text: NZCH 230530Z AUTO 25009KT 220V290 9999 RA BKN100/// 20/18 Q0991 BECMG 20035G50KT TEMPO 4000 RA
Conditions at: NZCH (CHRISTCHURCH INT, NZ) observed 0530 UTC 23 January 2019
Temperature: 20.0°C (68°F)
Dewpoint: 18.0°C (64°F) [RH = 88%]
Pressure (altimeter): 29.26 inches Hg (991.0 mb)
Winds: from the WSW (250 degrees) at 10 MPH (9 knots; 4.6 m/s)
Visibility: 6 or more miles (10+ km)
Ceiling: 10000 feet AGL
Clouds: broken clouds at 10000 feet AGL
Weather: RA  (moderate rain)

METAR text: NZCH 230500Z AUTO 24016KT 9999 -RA FEW050/// SCT075/// BKN095/// 21/18 Q0991 BECMG 20035G50KT TEMPO 4000 RA
Conditions at: NZCH (CHRISTCHURCH INT, NZ) observed 0500 UTC 23 January 2019
Temperature: 21.0°C (70°F)
Dewpoint: 18.0°C (64°F) [RH = 83%]
Pressure (altimeter): 29.26 inches Hg (991.0 mb)
Winds: from the WSW (240 degrees) at 18 MPH (16 knots; 8.2 m/s)
Visibility: 6 or more miles (10+ km)
Ceiling: 9500 feet AGL
Clouds: few clouds at 5000 feet AGL
scattered clouds at 7500 feet AGL
broken clouds at 9500 feet AGL
Weather: -RA  (light rain)

METAR text: NZCH 230430Z AUTO 26019G29KT 210V320 9999 -RA FEW032/// SCT048/// BKN095/// 26/16 Q0990 BECMG 20035G50KT TEMPO 4000 RA
Conditions at: NZCH (CHRISTCHURCH INT, NZ) observed 0430 UTC 23 January 2019
Temperature: 26.0°C (79°F)
Dewpoint: 16.0°C (61°F) [RH = 54%]
Pressure (altimeter): 29.23 inches Hg (990.0 mb)
Winds: from the W (260 degrees) at 22 MPH (19 knots; 9.8 m/s)
gusting to 33 MPH (29 knots; 14.9 m/s)
Visibility: 6 or more miles (10+ km)
Ceiling: 9500 feet AGL
Clouds: few clouds at 3200 feet AGL
scattered clouds at 4800 feet AGL
broken clouds at 9500 feet AGL
Weather: -RA  (light rain)

METAR text: NZCH 230400Z AUTO 30026G38KT 260V330 9999 NCD 30/11 Q0989 NOSIG
Conditions at: NZCH (CHRISTCHURCH INT, NZ) observed 0400 UTC 23 January 2019
Temperature: 30.0°C (86°F)
Dewpoint: 11.0°C (52°F) [RH = 31%]
Pressure (altimeter): 29.20 inches Hg (989.0 mb)
Winds: from the WNW (300 degrees) at 30 MPH (26 knots; 13.4 m/s)
gusting to 44 MPH (38 knots; 19.5 m/s)
Visibility: 6 or more miles (10+ km)
Ceiling: at least 12,000 feet AGL
Clouds: sky clear below 12,000 feet AGL
Weather: no significant weather observed at this time

METAR text: NZCH 230330Z AUTO 29022G35KT 250V330 9999 NCD 31/12 Q0989 NOSIG
Conditions at: NZCH (CHRISTCHURCH INT, NZ) observed 0330 UTC 23 January 2019
Temperature: 31.0°C (88°F)
Dewpoint: 12.0°C (54°F) [RH = 31%]
Pressure (altimeter): 29.20 inches Hg (989.0 mb)
Winds: from the WNW (290 degrees) at 25 MPH (22 knots; 11.3 m/s)
gusting to 40 MPH (35 knots; 18.0 m/s)
Visibility: 6 or more miles (10+ km)
Ceiling: at least 12,000 feet AGL
Clouds: sky clear below 12,000 feet AGL
Weather: no significant weather observed at this time

METAR text: NZCH 230300Z AUTO 30024G36KT 260V340 9999 NCD 31/11 Q0990 NOSIG
Conditions at: NZCH (CHRISTCHURCH INT, NZ) observed 0300 UTC 23 January 2019
Temperature: 31.0°C (88°F)
Dewpoint: 11.0°C (52°F) [RH = 29%]
Pressure (altimeter): 29.23 inches Hg (990.0 mb)
Winds: from the WNW (300 degrees) at 28 MPH (24 knots; 12.3 m/s)
gusting to 41 MPH (36 knots; 18.5 m/s)
Visibility: 6 or more miles (10+ km)
Ceiling: at least 12,000 feet AGL
Clouds: sky clear below 12,000 feet AGL
Weather: no significant weather observed at this time

METAR text: NZCH 230230Z AUTO 31022G36KT 270V340 9999 NCD 32/11 Q0990 NOSIG
Conditions at: NZCH (CHRISTCHURCH INT, NZ) observed 0230 UTC 23 January 2019
Temperature: 32.0°C (90°F)
Dewpoint: 11.0°C (52°F) [RH = 28%]
Pressure (altimeter): 29.23 inches Hg (990.0 mb)
Winds: from the NW (310 degrees) at 25 MPH (22 knots; 11.3 m/s)
gusting to 41 MPH (36 knots; 18.5 m/s)
Visibility: 6 or more miles (10+ km)
Ceiling: at least 12,000 feet AGL
Clouds: sky clear below 12,000 feet AGL
Weather: no significant weather observed at this time

METAR text: NZCH 230200Z AUTO 30022G37KT 240V340 9999 NCD 32/10 Q0991 NOSIG
Conditions at: NZCH (CHRISTCHURCH INT, NZ) observed 0200 UTC 23 January 2019
Temperature: 32.0°C (90°F)
Dewpoint: 10.0°C (50°F) [RH = 26%]
Pressure (altimeter): 29.26 inches Hg (991.0 mb)
Winds: from the WNW (300 degrees) at 25 MPH (22 knots; 11.3 m/s)
gusting to 43 MPH (37 knots; 19.0 m/s)
Visibility: 6 or more miles (10+ km)
Ceiling: at least 12,000 feet AGL
Clouds: sky clear below 12,000 feet AGL
Weather: no significant weather observed at this time

METAR text: NZCH 230130Z AUTO 31021G36KT 140V360 9999 SCT100/// 32/11 Q0991 NOSIG
Conditions at: NZCH (CHRISTCHURCH INT, NZ) observed 0130 UTC 23 January 2019
Temperature: 32.0°C (90°F)
Dewpoint: 11.0°C (52°F) [RH = 28%]
Pressure (altimeter): 29.26 inches Hg (991.0 mb)
Winds: from the NW (310 degrees) at 24 MPH (21 knots; 10.8 m/s)
gusting to 41 MPH (36 knots; 18.5 m/s)
Visibility: 6 or more miles (10+ km)
Ceiling: at least 12,000 feet AGL
Clouds: scattered clouds at 10000 feet AGL
Weather: no significant weather observed at this time

METAR text: NZCH 230100Z AUTO 31021G35KT 270V340 9999 FEW100/// 32/11 Q0992 NOSIG
Conditions at: NZCH (CHRISTCHURCH INT, NZ) observed 0100 UTC 23 January 2019
Temperature: 32.0°C (90°F)
Dewpoint: 11.0°C (52°F) [RH = 28%]
Pressure (altimeter): 29.29 inches Hg (992.0 mb)
Winds: from the NW (310 degrees) at 24 MPH (21 knots; 10.8 m/s)
gusting to 40 MPH (35 knots; 18.0 m/s)
Visibility: 6 or more miles (10+ km)
Ceiling: at least 12,000 feet AGL
Clouds: few clouds at 10000 feet AGL
Weather: no significant weather observed at this time

METAR text: NZCH 230030Z AUTO 29018G28KT 260V330 9999 NCD 32/11 Q0993 NOSIG
Conditions at: NZCH (CHRISTCHURCH INT, NZ) observed 0030 UTC 23 January 2019
Temperature: 32.0°C (90°F)
Dewpoint: 11.0°C (52°F) [RH = 28%]
Pressure (altimeter): 29.32 inches Hg (993.0 mb)
Winds: from the WNW (290 degrees) at 21 MPH (18 knots; 9.3 m/s)
gusting to 32 MPH (28 knots; 14.4 m/s)
Visibility: 6 or more miles (10+ km)
Ceiling: at least 12,000 feet AGL
Clouds: sky clear below 12,000 feet AGL
Weather: no significant weather observed at this time

METAR text: NZCH 230000Z AUTO 32017KT 270V350 9999 NCD 32/11 Q0993 NOSIG
Conditions at: NZCH (CHRISTCHURCH INT, NZ) observed 0000 UTC 23 January 2019
Temperature: 32.0°C (90°F)
Dewpoint: 11.0°C (52°F) [RH = 28%]
Pressure (altimeter): 29.32 inches Hg (993.0 mb)
Winds: from the NW (320 degrees) at 20 MPH (17 knots; 8.7 m/s)
Visibility: 6 or more miles (10+ km)
Ceiling: at least 12,000 feet AGL
Clouds: sky clear below 12,000 feet AGL
Weather: no significant weather observed at this time

METAR text: NZCH 222330Z AUTO 32015KT 270V340 9999 NCD 31/11 Q0994 NOSIG
Conditions at: NZCH (CHRISTCHURCH INT, NZ) observed 2330 UTC 22 January 2019
Temperature: 31.0°C (88°F)
Dewpoint: 11.0°C (52°F) [RH = 29%]
Pressure (altimeter): 29.35 inches Hg (994.0 mb)
Winds: from the NW (320 degrees) at 17 MPH (15 knots; 7.7 m/s)
Visibility: 6 or more miles (10+ km)
Ceiling: at least 12,000 feet AGL
Clouds: sky clear below 12,000 feet AGL
Weather: no significant weather observed at this time

METAR text: NZCH 222300Z AUTO 32017KT 290V350 9999 NCD 31/11 Q0995 NOSIG
Conditions at: NZCH (CHRISTCHURCH INT, NZ) observed 2300 UTC 22 January 2019
Temperature: 31.0°C (88°F)
Dewpoint: 11.0°C (52°F) [RH = 29%]
Pressure (altimeter): 29.38 inches Hg (995.0 mb)
Winds: from the NW (320 degrees) at 20 MPH (17 knots; 8.7 m/s)
Visibility: 6 or more miles (10+ km)
Ceiling: at least 12,000 feet AGL
Clouds: sky clear below 12,000 feet AGL
Weather: no significant weather observed at this time

METAR text: NZCH 222230Z AUTO 33016KT 290V010 9999 NCD 30/10 Q0996 NOSIG
Conditions at: NZCH (CHRISTCHURCH INT, NZ) observed 2230 UTC 22 January 2019
Temperature: 30.0°C (86°F)
Dewpoint: 10.0°C (50°F) [RH = 29%]
Pressure (altimeter): 29.41 inches Hg (996.0 mb)
Winds: from the NNW (330 degrees) at 18 MPH (16 knots; 8.2 m/s)
Visibility: 6 or more miles (10+ km)
Ceiling: at least 12,000 feet AGL
Clouds: sky clear below 12,000 feet AGL
Weather: no significant weather observed at this time

METAR text: NZCH 222200Z AUTO 33018KT 9999 NCD 30/11 Q0996 NOSIG
Conditions at: NZCH (CHRISTCHURCH INT, NZ) observed 2200 UTC 22 January 2019
Temperature: 30.0°C (86°F)
Dewpoint: 11.0°C (52°F) [RH = 31%]
Pressure (altimeter): 29.41 inches Hg (996.0 mb)
Winds: from the NNW (330 degrees) at 21 MPH (18 knots; 9.3 m/s)
Visibility: 6 or more miles (10+ km)
Ceiling: at least 12,000 feet AGL
Clouds: sky clear below 12,000 feet AGL
Weather: no significant weather observed at this time

METAR text: NZCH 222130Z AUTO 32018KT 9999 NCD 29/10 Q0997 NOSIG
Conditions at: NZCH (CHRISTCHURCH INT, NZ) observed 2130 UTC 22 January 2019
Temperature: 29.0°C (84°F)
Dewpoint: 10.0°C (50°F) [RH = 31%]
Pressure (altimeter): 29.44 inches Hg (997.0 mb)
Winds: from the NW (320 degrees) at 21 MPH (18 knots; 9.3 m/s)
Visibility: 6 or more miles (10+ km)
Ceiling: at least 12,000 feet AGL
Clouds: sky clear below 12,000 feet AGL
Weather: no significant weather observed at this time

METAR text: NZCH 222100Z AUTO 32021KT 290V350 9999 NCD 29/10 Q0997 NOSIG
Conditions at: NZCH (CHRISTCHURCH INT, NZ) observed 2100 UTC 22 January 2019
Temperature: 29.0°C (84°F)
Dewpoint: 10.0°C (50°F) [RH = 31%]
Pressure (altimeter): 29.44 inches Hg (997.0 mb)
Winds: from the NW (320 degrees) at 24 MPH (21 knots; 10.8 m/s)
Visibility: 6 or more miles (10+ km)
Ceiling: at least 12,000 feet AGL
Clouds: sky clear below 12,000 feet AGL
Weather: no significant weather observed at this time

METAR text: NZCH 222030Z AUTO 32018G31KT 280V350 9999 NCD 28/11 Q0997 NOSIG
Conditions at: NZCH (CHRISTCHURCH INT, NZ) observed 2030 UTC 22 January 2019
Temperature: 28.0°C (82°F)
Dewpoint: 11.0°C (52°F) [RH = 35%]
Pressure (altimeter): 29.44 inches Hg (997.0 mb)
Winds: from the NW (320 degrees) at 21 MPH (18 knots; 9.3 m/s)
gusting to 36 MPH (31 knots; 15.9 m/s)
Visibility: 6 or more miles (10+ km)
Ceiling: at least 12,000 feet AGL
Clouds: sky clear below 12,000 feet AGL
Weather: no significant weather observed at this time

METAR text: NZCH 222000Z AUTO 32018KT 290V360 9999 NCD 28/12 Q0997 NOSIG
Conditions at: NZCH (CHRISTCHURCH INT, NZ) observed 2000 UTC 22 January 2019
Temperature: 28.0°C (82°F)
Dewpoint: 12.0°C (54°F) [RH = 37%]
Pressure (altimeter): 29.44 inches Hg (997.0 mb)
Winds: from the NW (320 degrees) at 21 MPH (18 knots; 9.3 m/s)
Visibility: 6 or more miles (10+ km)
Ceiling: at least 12,000 feet AGL
Clouds: sky clear below 12,000 feet AGL
Weather: no significant weather observed at this time

METAR text: NZCH 221930Z AUTO 32015KT 270V350 9999 NCD 26/12 Q0997 NOSIG
Conditions at: NZCH (CHRISTCHURCH INT, NZ) observed 1930 UTC 22 January 2019
Temperature: 26.0°C (79°F)
Dewpoint: 12.0°C (54°F) [RH = 42%]
Pressure (altimeter): 29.44 inches Hg (997.0 mb)
Winds: from the NW (320 degrees) at 17 MPH (15 knots; 7.7 m/s)
Visibility: 6 or more miles (10+ km)
Ceiling: at least 12,000 feet AGL
Clouds: sky clear below 12,000 feet AGL
Weather: no significant weather observed at this time

METAR text: NZCH 221900Z AUTO 31014KT 280V340 9999 NCD 25/12 Q0997 NOSIG
Conditions at: NZCH (CHRISTCHURCH INT, NZ) observed 1900 UTC 22 January 2019
Temperature: 25.0°C (77°F)
Dewpoint: 12.0°C (54°F) [RH = 44%]
Pressure (altimeter): 29.44 inches Hg (997.0 mb)
Winds: from the NW (310 degrees) at 16 MPH (14 knots; 7.2 m/s)
Visibility: 6 or more miles (10+ km)
Ceiling: at least 12,000 feet AGL
Clouds: sky clear below 12,000 feet AGL
Weather: no significant weather observed at this time

METAR text: NZCH 221830Z AUTO 33007KT 290V360 9999 NCD 24/11 Q0997 NOSIG
Conditions at: NZCH (CHRISTCHURCH INT, NZ) observed 1830 UTC 22 January 2019
Temperature: 24.0°C (75°F)
Dewpoint: 11.0°C (52°F) [RH = 44%]
Pressure (altimeter): 29.44 inches Hg (997.0 mb)
Winds: from the NNW (330 degrees) at 8 MPH (7 knots; 3.6 m/s)
Visibility: 6 or more miles (10+ km)
Ceiling: at least 12,000 feet AGL
Clouds: sky clear below 12,000 feet AGL
Weather: no significant weather observed at this time

METAR text: NZCH 221800Z AUTO 31012KT 260V340 9999 NCD 24/10 Q0998 NOSIG
Conditions at: NZCH (CHRISTCHURCH INT, NZ) observed 1800 UTC 22 January 2019
Temperature: 24.0°C (75°F)
Dewpoint: 10.0°C (50°F) [RH = 41%]
Pressure (altimeter): 29.47 inches Hg (998.0 mb)
Winds: from the NW (310 degrees) at 14 MPH (12 knots; 6.2 m/s)
Visibility: 6 or more miles (10+ km)
Ceiling: at least 12,000 feet AGL
Clouds: sky clear below 12,000 feet AGL
Weather: no significant weather observed at this time

METAR text: NZCH 221730Z AUTO 31010KT 270V340 9999 NCD 24/10 Q0998 NOSIG
Conditions at: NZCH (CHRISTCHURCH INT, NZ) observed 1730 UTC 22 January 2019
Temperature: 24.0°C (75°F)
Dewpoint: 10.0°C (50°F) [RH = 41%]
Pressure (altimeter): 29.47 inches Hg (998.0 mb)
Winds: from the NW (310 degrees) at 12 MPH (10 knots; 5.1 m/s)
Visibility: 6 or more miles (10+ km)
Ceiling: at least 12,000 feet AGL
Clouds: sky clear below 12,000 feet AGL
Weather: no significant weather observed at this time

METAR text: NZCH 221700Z AUTO 31009KT 260V340 9999 NCD 23/11 Q0998 NOSIG
Conditions at: NZCH (CHRISTCHURCH INT, NZ) observed 1700 UTC 22 January 2019
Temperature: 23.0°C (73°F)
Dewpoint: 11.0°C (52°F) [RH = 47%]
Pressure (altimeter): 29.47 inches Hg (998.0 mb)
Winds: from the NW (310 degrees) at 10 MPH (9 knots; 4.6 m/s)
Visibility: 6 or more miles (10+ km)
Ceiling: at least 12,000 feet AGL
Clouds: sky clear below 12,000 feet AGL
Weather: no significant weather observed at this time

METAR text: NZCH 221630Z AUTO 32010KT 9999 NCD 24/11 Q0998 NOSIG
Conditions at: NZCH (CHRISTCHURCH INT, NZ) observed 1630 UTC 22 January 2019
Temperature: 24.0°C (75°F)
Dewpoint: 11.0°C (52°F) [RH = 44%]
Pressure (altimeter): 29.47 inches Hg (998.0 mb)
Winds: from the NW (320 degrees) at 12 MPH (10 knots; 5.1 m/s)
Visibility: 6 or more miles (10+ km)
Ceiling: at least 12,000 feet AGL
Clouds: sky clear below 12,000 feet AGL
Weather: no significant weather observed at this time

METAR text: NZCH 221600Z AUTO 31013KT 9999 NCD 24/11 Q0998 NOSIG
Conditions at: NZCH (CHRISTCHURCH INT, NZ) observed 1600 UTC 22 January 2019
Temperature: 24.0°C (75°F)
Dewpoint: 11.0°C (52°F) [RH = 44%]
Pressure (altimeter): 29.47 inches Hg (998.0 mb)
Winds: from the NW (310 degrees) at 15 MPH (13 knots; 6.7 m/s)
Visibility: 6 or more miles (10+ km)
Ceiling: at least 12,000 feet AGL
Clouds: sky clear below 12,000 feet AGL
Weather: no significant weather observed at this time

METAR text: NZCH 221530Z AUTO 32011KT 290V350 9999 NCD 24/10 Q0998 NOSIG
Conditions at: NZCH (CHRISTCHURCH INT, NZ) observed 1530 UTC 22 January 2019
Temperature: 24.0°C (75°F)
Dewpoint: 10.0°C (50°F) [RH = 41%]
Pressure (altimeter): 29.47 inches Hg (998.0 mb)
Winds: from the NW (320 degrees) at 13 MPH (11 knots; 5.7 m/s)
Visibility: 6 or more miles (10+ km)
Ceiling: at least 12,000 feet AGL
Clouds: sky clear below 12,000 feet AGL
Weather: no significant weather observed at this time

METAR text: NZCH 221500Z AUTO 32012KT 280V350 9999 NCD 25/10 Q0998 NOSIG
Conditions at: NZCH (CHRISTCHURCH INT, NZ) observed 1500 UTC 22 January 2019
Temperature: 25.0°C (77°F)
Dewpoint: 10.0°C (50°F) [RH = 39%]
Pressure (altimeter): 29.47 inches Hg (998.0 mb)
Winds: from the NW (320 degrees) at 14 MPH (12 knots; 6.2 m/s)
Visibility: 6 or more miles (10+ km)
Ceiling: at least 12,000 feet AGL
Clouds: sky clear below 12,000 feet AGL
Weather: no significant weather observed at this time

METAR text: NZCH 221430Z AUTO 34006KT 9999 NCD 22/11 Q0998 NOSIG
Conditions at: NZCH (CHRISTCHURCH INT, NZ) observed 1430 UTC 22 January 2019
Temperature: 22.0°C (72°F)
Dewpoint: 11.0°C (52°F) [RH = 50%]
Pressure (altimeter): 29.47 inches Hg (998.0 mb)
Winds: from the NNW (340 degrees) at 7 MPH (6 knots; 3.1 m/s)
Visibility: 6 or more miles (10+ km)
Ceiling: at least 12,000 feet AGL
Clouds: sky clear below 12,000 feet AGL
Weather: no significant weather observed at this time

METAR text: NZCH 221400Z AUTO 33011KT 300V360 9999 NCD 23/11 Q0998 NOSIG
Conditions at: NZCH (CHRISTCHURCH INT, NZ) observed 1400 UTC 22 January 2019
Temperature: 23.0°C (73°F)
Dewpoint: 11.0°C (52°F) [RH = 47%]
Pressure (altimeter): 29.47 inches Hg (998.0 mb)
Winds: from the NNW (330 degrees) at 13 MPH (11 knots; 5.7 m/s)
Visibility: 6 or more miles (10+ km)
Ceiling: at least 12,000 feet AGL
Clouds: sky clear below 12,000 feet AGL
Weather: no significant weather observed at this time

METAR text: NZCH 221330Z AUTO 32014KT 9999 NCD 22/11 Q0998 NOSIG
Conditions at: NZCH (CHRISTCHURCH INT, NZ) observed 1330 UTC 22 January 2019
Temperature: 22.0°C (72°F)
Dewpoint: 11.0°C (52°F) [RH = 50%]
Pressure (altimeter): 29.47 inches Hg (998.0 mb)
Winds: from the NW (320 degrees) at 16 MPH (14 knots; 7.2 m/s)
Visibility: 6 or more miles (10+ km)
Ceiling: at least 12,000 feet AGL
Clouds: sky clear below 12,000 feet AGL
Weather: no significant weather observed at this time

METAR text: NZCH 221300Z AUTO 34015KT 9999 NCD 23/11 Q0999 NOSIG
Conditions at: NZCH (CHRISTCHURCH INT, NZ) observed 1300 UTC 22 January 2019
Temperature: 23.0°C (73°F)
Dewpoint: 11.0°C (52°F) [RH = 47%]
Pressure (altimeter): 29.50 inches Hg (999.0 mb)
Winds: from the NNW (340 degrees) at 17 MPH (15 knots; 7.7 m/s)
Visibility: 6 or more miles (10+ km)
Ceiling: at least 12,000 feet AGL
Clouds: sky clear below 12,000 feet AGL
Weather: no significant weather observed at this time

METAR text: NZCH 221230Z AUTO 33011KT 9999 NCD 22/11 Q1000 NOSIG
Conditions at: NZCH (CHRISTCHURCH INT, NZ) observed 1230 UTC 22 January 2019
Temperature: 22.0°C (72°F)
Dewpoint: 11.0°C (52°F) [RH = 50%]
Pressure (altimeter): 29.53 inches Hg (1000.0 mb)
Winds: from the NNW (330 degrees) at 13 MPH (11 knots; 5.7 m/s)
Visibility: 6 or more miles (10+ km)
Ceiling: at least 12,000 feet AGL
Clouds: sky clear below 12,000 feet AGL
Weather: no significant weather observed at this time

METAR text: NZCH 221200Z AUTO 34009KT 9999 NCD 22/11 Q1000 NOSIG
Conditions at: NZCH (CHRISTCHURCH INT, NZ) observed 1200 UTC 22 January 2019
Temperature: 22.0°C (72°F)
Dewpoint: 11.0°C (52°F) [RH = 50%]
Pressure (altimeter): 29.53 inches Hg (1000.0 mb)
Winds: from the NNW (340 degrees) at 10 MPH (9 knots; 4.6 m/s)
Visibility: 6 or more miles (10+ km)
Ceiling: at least 12,000 feet AGL
Clouds: sky clear below 12,000 feet AGL
Weather: no significant weather observed at this time

METAR text: NZCH 221130Z AUTO 32010KT 9999 NCD 22/10 Q1000 NOSIG
Conditions at: NZCH (CHRISTCHURCH INT, NZ) observed 1130 UTC 22 January 2019
Temperature: 22.0°C (72°F)
Dewpoint: 10.0°C (50°F) [RH = 46%]
Pressure (altimeter): 29.53 inches Hg (1000.0 mb)
Winds: from the NW (320 degrees) at 12 MPH (10 knots; 5.1 m/s)
Visibility: 6 or more miles (10+ km)
Ceiling: at least 12,000 feet AGL
Clouds: sky clear below 12,000 feet AGL
Weather: no significant weather observed at this time

METAR text: NZCH 221100Z AUTO 31015KT 9999 NCD 23/10 Q1000 NOSIG
Conditions at: NZCH (CHRISTCHURCH INT, NZ) observed 1100 UTC 22 January 2019
Temperature: 23.0°C (73°F)
Dewpoint: 10.0°C (50°F) [RH = 44%]
Pressure (altimeter): 29.53 inches Hg (1000.0 mb)
Winds: from the NW (310 degrees) at 17 MPH (15 knots; 7.7 m/s)
Visibility: 6 or more miles (10+ km)
Ceiling: at least 12,000 feet AGL
Clouds: sky clear below 12,000 feet AGL
Weather: no significant weather observed at this time

METAR text: NZCH 221030Z AUTO 32015KT 280V350 9999 NCD 23/10 Q1000 NOSIG
Conditions at: NZCH (CHRISTCHURCH INT, NZ) observed 1030 UTC 22 January 2019
Temperature: 23.0°C (73°F)
Dewpoint: 10.0°C (50°F) [RH = 44%]
Pressure (altimeter): 29.53 inches Hg (1000.0 mb)
Winds: from the NW (320 degrees) at 17 MPH (15 knots; 7.7 m/s)
Visibility: 6 or more miles (10+ km)
Ceiling: at least 12,000 feet AGL
Clouds: sky clear below 12,000 feet AGL
Weather: no significant weather observed at this time

METAR text: NZCH 221000Z AUTO 31015KT 9999 NCD 24/09 Q1001 NOSIG
Conditions at: NZCH (CHRISTCHURCH INT, NZ) observed 1000 UTC 22 January 2019
Temperature: 24.0°C (75°F)
Dewpoint: 9.0°C (48°F) [RH = 38%]
Pressure (altimeter): 29.56 inches Hg (1001.0 mb)
Winds: from the NW (310 degrees) at 17 MPH (15 knots; 7.7 m/s)
Visibility: 6 or more miles (10+ km)
Ceiling: at least 12,000 feet AGL
Clouds: sky clear below 12,000 feet AGL
Weather: no significant weather observed at this time

METAR text: NZCH 220930Z AUTO 31018KT 9999 NCD 24/09 Q1001 NOSIG
Conditions at: NZCH (CHRISTCHURCH INT, NZ) observed 0930 UTC 22 January 2019
Temperature: 24.0°C (75°F)
Dewpoint: 9.0°C (48°F) [RH = 38%]
Pressure (altimeter): 29.56 inches Hg (1001.0 mb)
Winds: from the NW (310 degrees) at 21 MPH (18 knots; 9.3 m/s)
Visibility: 6 or more miles (10+ km)
Ceiling: at least 12,000 feet AGL
Clouds: sky clear below 12,000 feet AGL
Weather: no significant weather observed at this time

METAR text: NZCH 220900Z AUTO 30017KT 270V350 9999 NCD 24/08 Q1001 NOSIG
Conditions at: NZCH (CHRISTCHURCH INT, NZ) observed 0900 UTC 22 January 2019
Temperature: 24.0°C (75°F)
Dewpoint: 8.0°C (46°F) [RH = 36%]
Pressure (altimeter): 29.56 inches Hg (1001.0 mb)
Winds: from the WNW (300 degrees) at 20 MPH (17 knots; 8.7 m/s)
Visibility: 6 or more miles (10+ km)
Ceiling: at least 12,000 feet AGL
Clouds: sky clear below 12,000 feet AGL
Weather: no significant weather observed at this time

METAR text: NZCH 220830Z AUTO 30015KT 270V340 9999 NCD 24/08 Q1001 NOSIG
Conditions at: NZCH (CHRISTCHURCH INT, NZ) observed 0830 UTC 22 January 2019
Temperature: 24.0°C (75°F)
Dewpoint: 8.0°C (46°F) [RH = 36%]
Pressure (altimeter): 29.56 inches Hg (1001.0 mb)
Winds: from the WNW (300 degrees) at 17 MPH (15 knots; 7.7 m/s)
Visibility: 6 or more miles (10+ km)
Ceiling: at least 12,000 feet AGL
Clouds: sky clear below 12,000 feet AGL
Weather: no significant weather observed at this time

METAR text: NZCH 220800Z AUTO 32014KT 280V340 9999 NCD 24/08 Q1001 NOSIG
Conditions at: NZCH (CHRISTCHURCH INT, NZ) observed 0800 UTC 22 January 2019
Temperature: 24.0°C (75°F)
Dewpoint: 8.0°C (46°F) [RH = 36%]
Pressure (altimeter): 29.56 inches Hg (1001.0 mb)
Winds: from the NW (320 degrees) at 16 MPH (14 knots; 7.2 m/s)
Visibility: 6 or more miles (10+ km)
Ceiling: at least 12,000 feet AGL
Clouds: sky clear below 12,000 feet AGL
Weather: no significant weather observed at this time

METAR text: NZCH 220730Z AUTO 32012KT 290V350 9999 NCD 25/09 Q1001 NOSIG
Conditions at: NZCH (CHRISTCHURCH INT, NZ) observed 0730 UTC 22 January 2019
Temperature: 25.0°C (77°F)
Dewpoint: 9.0°C (48°F) [RH = 36%]
Pressure (altimeter): 29.56 inches Hg (1001.0 mb)
Winds: from the NW (320 degrees) at 14 MPH (12 knots; 6.2 m/s)
Visibility: 6 or more miles (10+ km)
Ceiling: at least 12,000 feet AGL
Clouds: sky clear below 12,000 feet AGL
Weather: no significant weather observed at this time

METAR text: NZCH 220700Z AUTO 31015KT 280V340 9999 NCD 27/08 Q1001 NOSIG
Conditions at: NZCH (CHRISTCHURCH INT, NZ) observed 0700 UTC 22 January 2019
Temperature: 27.0°C (81°F)
Dewpoint: 8.0°C (46°F) [RH = 30%]
Pressure (altimeter): 29.56 inches Hg (1001.0 mb)
Winds: from the NW (310 degrees) at 17 MPH (15 knots; 7.7 m/s)
Visibility: 6 or more miles (10+ km)
Ceiling: at least 12,000 feet AGL
Clouds: sky clear below 12,000 feet AGL
Weather: no significant weather observed at this time

METAR text: NZCH 220630Z AUTO 31014G24KT 9999 NCD 28/07 Q1001 NOSIG
Conditions at: NZCH (CHRISTCHURCH INT, NZ) observed 0630 UTC 22 January 2019
Temperature: 28.0°C (82°F)
Dewpoint: 7.0°C (45°F) [RH = 27%]
Pressure (altimeter): 29.56 inches Hg (1001.0 mb)
Winds: from the NW (310 degrees) at 16 MPH (14 knots; 7.2 m/s)
gusting to 28 MPH (24 knots; 12.3 m/s)
Visibility: 6 or more miles (10+ km)
Ceiling: at least 12,000 feet AGL
Clouds: sky clear below 12,000 feet AGL
Weather: no significant weather observed at this time

METAR text: NZCH 220600Z AUTO 30013KT 270V330 9999 NCD 28/07 Q1002 NOSIG
Conditions at: NZCH (CHRISTCHURCH INT, NZ) observed 0600 UTC 22 January 2019
Temperature: 28.0°C (82°F)
Dewpoint: 7.0°C (45°F) [RH = 27%]
Pressure (altimeter): 29.59 inches Hg (1002.0 mb)
Winds: from the WNW (300 degrees) at 15 MPH (13 knots; 6.7 m/s)
Visibility: 6 or more miles (10+ km)
Ceiling: at least 12,000 feet AGL
Clouds: sky clear below 12,000 feet AGL
Weather: no significant weather observed at this time

METAR text: NZCH 220530Z AUTO 30016KT 260V330 9999 NCD 28/06 Q1002 NOSIG
Conditions at: NZCH (CHRISTCHURCH INT, NZ) observed 0530 UTC 22 January 2019
Temperature: 28.0°C (82°F)
Dewpoint: 6.0°C (43°F) [RH = 25%]
Pressure (altimeter): 29.59 inches Hg (1002.0 mb)
Winds: from the WNW (300 degrees) at 18 MPH (16 knots; 8.2 m/s)
Visibility: 6 or more miles (10+ km)
Ceiling: at least 12,000 feet AGL
Clouds: sky clear below 12,000 feet AGL
Weather: no significant weather observed at this time

METAR text: NZCH 220500Z AUTO 28016G29KT 230V320 9999 NCD 29/05 Q1001 NOSIG
Conditions at: NZCH (CHRISTCHURCH INT, NZ) observed 0500 UTC 22 January 2019
Temperature: 29.0°C (84°F)
Dewpoint: 5.0°C (41°F) [RH = 22%]
Pressure (altimeter): 29.56 inches Hg (1001.0 mb)
Winds: from the W (280 degrees) at 18 MPH (16 knots; 8.2 m/s)
gusting to 33 MPH (29 knots; 14.9 m/s)
Visibility: 6 or more miles (10+ km)
Ceiling: at least 12,000 feet AGL
Clouds: sky clear below 12,000 feet AGL
Weather: no significant weather observed at this time

METAR text: NZCH 220430Z AUTO 29018G28KT 260V330 9999 NCD 29/05 Q1001 NOSIG
Conditions at: NZCH (CHRISTCHURCH INT, NZ) observed 0430 UTC 22 January 2019
Temperature: 29.0°C (84°F)
Dewpoint: 5.0°C (41°F) [RH = 22%]
Pressure (altimeter): 29.56 inches Hg (1001.0 mb)
Winds: from the WNW (290 degrees) at 21 MPH (18 knots; 9.3 m/s)
gusting to 32 MPH (28 knots; 14.4 m/s)
Visibility: 6 or more miles (10+ km)
Ceiling: at least 12,000 feet AGL
Clouds: sky clear below 12,000 feet AGL
Weather: no significant weather observed at this time

METAR text: NZCH 220400Z AUTO 28020KT 250V320 9999 NCD 29/03 Q1001 NOSIG
Conditions at: NZCH (CHRISTCHURCH INT, NZ) observed 0400 UTC 22 January 2019
Temperature: 29.0°C (84°F)
Dewpoint: 3.0°C (37°F) [RH = 19%]
Pressure (altimeter): 29.56 inches Hg (1001.0 mb)
Winds: from the W (280 degrees) at 23 MPH (20 knots; 10.3 m/s)
Visibility: 6 or more miles (10+ km)
Ceiling: at least 12,000 feet AGL
Clouds: sky clear below 12,000 feet AGL
Weather: no significant weather observed at this time

METAR text: NZCH 220330Z AUTO 29018KT 250V320 9999 NCD 29/04 Q1001 NOSIG
Conditions at: NZCH (CHRISTCHURCH INT, NZ) observed 0330 UTC 22 January 2019
Temperature: 29.0°C (84°F)
Dewpoint: 4.0°C (39°F) [RH = 20%]
Pressure (altimeter): 29.56 inches Hg (1001.0 mb)
Winds: from the WNW (290 degrees) at 21 MPH (18 knots; 9.3 m/s)
Visibility: 6 or more miles (10+ km)
Ceiling: at least 12,000 feet AGL
Clouds: sky clear below 12,000 feet AGL
Weather: no significant weather observed at this time

METAR text: NZCH 220300Z AUTO 29020KT 9999 NCD 30/06 Q1001 NOSIG
Conditions at: NZCH (CHRISTCHURCH INT, NZ) observed 0300 UTC 22 January 2019
Temperature: 30.0°C (86°F)
Dewpoint: 6.0°C (43°F) [RH = 22%]
Pressure (altimeter): 29.56 inches Hg (1001.0 mb)
Winds: from the WNW (290 degrees) at 23 MPH (20 knots; 10.3 m/s)
Visibility: 6 or more miles (10+ km)
Ceiling: at least 12,000 feet AGL
Clouds: sky clear below 12,000 feet AGL
Weather: no significant weather observed at this time

METAR text: NZCH 220230Z AUTO 29016KT 250V330 9999 NCD 30/07 Q1001 NOSIG
Conditions at: NZCH (CHRISTCHURCH INT, NZ) observed 0230 UTC 22 January 2019
Temperature: 30.0°C (86°F)
Dewpoint: 7.0°C (45°F) [RH = 24%]
Pressure (altimeter): 29.56 inches Hg (1001.0 mb)
Winds: from the WNW (290 degrees) at 18 MPH (16 knots; 8.2 m/s)
Visibility: 6 or more miles (10+ km)
Ceiling: at least 12,000 feet AGL
Clouds: sky clear below 12,000 feet AGL
Weather: no significant weather observed at this time

METAR text: NZCH 220200Z AUTO 29013KT 250V330 9999 NCD 30/07 Q1002 NOSIG
Conditions at: NZCH (CHRISTCHURCH INT, NZ) observed 0200 UTC 22 January 2019
Temperature: 30.0°C (86°F)
Dewpoint: 7.0°C (45°F) [RH = 24%]
Pressure (altimeter): 29.59 inches Hg (1002.0 mb)
Winds: from the WNW (290 degrees) at 15 MPH (13 knots; 6.7 m/s)
Visibility: 6 or more miles (10+ km)
Ceiling: at least 12,000 feet AGL
Clouds: sky clear below 12,000 feet AGL
Weather: no significant weather observed at this time

METAR text: NZCH 220130Z AUTO 29013KT 250V330 9999 NCD 30/08 Q1002 NOSIG
Conditions at: NZCH (CHRISTCHURCH INT, NZ) observed 0130 UTC 22 January 2019
Temperature: 30.0°C (86°F)
Dewpoint: 8.0°C (46°F) [RH = 25%]
Pressure (altimeter): 29.59 inches Hg (1002.0 mb)
Winds: from the WNW (290 degrees) at 15 MPH (13 knots; 6.7 m/s)
Visibility: 6 or more miles (10+ km)
Ceiling: at least 12,000 feet AGL
Clouds: sky clear below 12,000 feet AGL
Weather: no significant weather observed at this time

Forecast for: NZCH (CHRISTCHURCH INT, NZ)
Text: TAF NZCH 231105Z 2312/2412 20008KT 9999 FEW050
Forecast period: 1200 UTC 23 January 2019 to 0100 UTC 24 January 2019
Forecast type: FROM: standard forecast or significant change
Winds: from the SSW (200 degrees) at 9 MPH (8 knots; 4.1 m/s)
Visibility: 6 or more miles 10+ km)
Ceiling: at least 12,000 feet AGL
Clouds: few clouds at 5000 feet AGL
Weather: no significant weather forecast for this period
Text: BECMG 2401/2403 06010KT
Forecast period: 0100 to 1200 UTC 24 January 2019
Forecast type: BECOMING: Conditions expected to become as follows by 0300 UTC 24 January 2019
Winds: from the ENE (60 degrees) at 12 MPH (10 knots; 5.1 m/s)
Visibility: 6 or more miles 10+ km)
Ceiling: at least 12,000 feet AGL
Clouds: few clouds at 5000 feet AGL
Weather: no significant weather forecast for this period